TimeEST,TemperatureF,Dew PointF,Humidity,Sea Level PressureIn,VisibilityMPH,Wind Direction,Wind SpeedMPH,Gust SpeedMPH,PrecipitationIn,Events,Conditions,WindDirDegrees,DateUTC
12:16 AM,44.2,36.7,75,29.81,10.0,West,17.3,21.9,N/A,,Overcast,260,2012-12-07 05:16:00
12:37 AM,43.5,35.1,72,29.81,10.0,West,12.7,18.4,N/A,,Overcast,270,2012-12-07 05:37:00
12:57 AM,43.0,35.6,75,29.81,10.0,West,9.2,-,N/A,,Overcast,280,2012-12-07 05:57:00
1:16 AM,41.9,34.2,74,29.82,10.0,WNW,10.4,17.3,N/A,,Overcast,290,2012-12-07 06:16:00
1:37 AM,41.5,34.3,76,29.82,10.0,WNW,10.4,-,N/A,,Overcast,300,2012-12-07 06:37:00
1:57 AM,41.5,34.0,75,29.82,10.0,WNW,8.1,-,N/A,,Overcast,290,2012-12-07 06:57:00
2:17 AM,41.0,33.8,76,29.83,10.0,West,9.2,-,N/A,,Overcast,280,2012-12-07 07:17:00
2:37 AM,40.6,32.7,73,29.84,10.0,WNW,5.8,-,N/A,,Overcast,290,2012-12-07 07:37:00
2:57 AM,40.3,32.0,72,29.84,10.0,WNW,8.1,-,N/A,,Mostly Cloudy,300,2012-12-07 07:57:00
3:17 AM,39.7,31.5,72,29.85,10.0,WNW,5.8,-,N/A,,Scattered Clouds,300,2012-12-07 08:17:00
3:37 AM,39.4,31.8,74,29.85,10.0,WNW,6.9,-,N/A,,Mostly Cloudy,290,2012-12-07 08:37:00
3:57 AM,39.2,31.8,75,29.86,10.0,WNW,6.9,-,N/A,,Scattered Clouds,290,2012-12-07 08:57:00
4:17 AM,39.2,31.6,74,29.86,10.0,NW,5.8,-,N/A,,Mostly Cloudy,310,2012-12-07 09:17:00
4:37 AM,39.7,31.8,73,29.86,10.0,NW,9.2,-,N/A,,Overcast,310,2012-12-07 09:37:00
4:56 AM,39.6,31.5,73,29.87,10.0,NW,8.1,16.1,N/A,,Overcast,320,2012-12-07 09:56:00
5:17 AM,39.2,31.1,73,29.87,10.0,NW,5.8,16.1,N/A,,Overcast,320,2012-12-07 10:17:00
5:37 AM,39.0,32.0,76,29.87,10.0,NNW,8.1,-,N/A,,Overcast,330,2012-12-07 10:37:00
5:56 AM,38.3,31.3,76,29.89,10.0,NNW,5.8,-,N/A,,Overcast,340,2012-12-07 10:56:00
6:17 AM,37.9,30.2,74,29.90,10.0,NNW,6.9,-,N/A,,Overcast,330,2012-12-07 11:17:00
6:37 AM,37.6,29.1,72,29.90,10.0,North,6.9,-,N/A,,Overcast,350,2012-12-07 11:37:00
6:56 AM,37.2,27.5,68,29.90,10.0,NNW,8.1,-,N/A,,Overcast,340,2012-12-07 11:56:00
7:17 AM,36.7,27.0,68,29.91,10.0,NNW,8.1,-,N/A,,Overcast,340,2012-12-07 12:17:00
7:37 AM,36.5,27.5,70,29.93,10.0,NNW,6.9,-,N/A,,Overcast,340,2012-12-07 12:37:00
7:57 AM,35.8,27.0,70,29.93,10.0,NNW,6.9,-,N/A,,Overcast,330,2012-12-07 12:57:00
8:17 AM,35.6,26.2,69,29.93,10.0,NNW,4.6,-,N/A,,Overcast,340,2012-12-07 13:17:00
8:37 AM,35.6,26.2,69,29.94,10.0,NNW,8.1,-,N/A,,Overcast,340,2012-12-07 13:37:00
8:56 AM,35.6,25.9,68,29.94,10.0,NNW,6.9,17.3,N/A,,Overcast,340,2012-12-07 13:56:00
9:17 AM,35.2,25.7,68,29.94,10.0,NW,8.1,-,N/A,,Mostly Cloudy,320,2012-12-07 14:17:00
9:37 AM,35.6,25.7,67,29.95,10.0,NNW,6.9,-,N/A,,Overcast,330,2012-12-07 14:37:00
9:56 AM,36.0,25.7,66,29.95,10.0,NW,5.8,-,N/A,,Overcast,320,2012-12-07 14:56:00
10:17 AM,36.5,25.5,64,29.96,10.0,NW,10.4,16.1,N/A,,Overcast,310,2012-12-07 15:17:00
10:37 AM,36.5,25.5,64,29.97,10.0,NW,8.1,-,N/A,,Overcast,310,2012-12-07 15:37:00
10:57 AM,36.9,26.2,65,29.98,10.0,NW,6.9,-,N/A,,Overcast,310,2012-12-07 15:57:00
11:17 AM,36.5,26.1,66,29.98,10.0,NNW,5.8,-,N/A,,Overcast,330,2012-12-07 16:17:00
11:36 AM,36.5,26.2,66,29.98,10.0,NW,8.1,-,N/A,,Overcast,320,2012-12-07 16:36:00
11:57 AM,36.5,25.9,65,29.97,10.0,NNW,4.6,-,N/A,,Overcast,330,2012-12-07 16:57:00
12:17 PM,37.4,25.9,63,29.96,10.0,North,5.8,-,N/A,,Overcast,350,2012-12-07 17:17:00
12:37 PM,37.0,25.7,64,29.96,10.0,NW,6.9,-,N/A,,Overcast,310,2012-12-07 17:37:00
12:57 PM,36.7,25.9,65,29.96,10.0,NNW,8.1,-,N/A,,Overcast,330,2012-12-07 17:57:00
1:17 PM,37.2,25.9,64,29.96,10.0,NW,9.2,-,N/A,,Overcast,320,2012-12-07 18:17:00
1:37 PM,38.3,25.9,61,29.96,10.0,NW,8.1,-,N/A,,Overcast,320,2012-12-07 18:37:00
1:57 PM,36.9,25.3,63,29.96,10.0,NNW,3.5,-,N/A,,Overcast,330,2012-12-07 18:57:00
2:17 PM,37.4,25.3,62,29.96,10.0,NNW,6.9,-,N/A,,Overcast,340,2012-12-07 19:17:00
2:37 PM,36.9,25.5,64,29.96,10.0,NNW,4.6,-,N/A,,Overcast,340,2012-12-07 19:37:00
2:57 PM,36.5,24.1,61,29.96,10.0,NNW,5.8,-,N/A,,Overcast,340,2012-12-07 19:57:00
3:17 PM,36.5,24.4,62,29.96,10.0,NW,4.6,-,N/A,,Overcast,320,2012-12-07 20:17:00
3:37 PM,36.5,26.2,66,29.97,10.0,North,3.5,-,N/A,,Overcast,350,2012-12-07 20:37:00
3:57 PM,36.5,25.3,64,29.98,10.0,NNW,4.6,-,N/A,,Overcast,330,2012-12-07 20:57:00
4:17 PM,36.3,24.6,63,29.99,10.0,North,3.5,-,N/A,,Overcast,350,2012-12-07 21:17:00
4:37 PM,35.6,23.5,62,29.99,10.0,North,3.5,-,N/A,,Overcast,350,2012-12-07 21:37:00
4:57 PM,35.2,23.0,61,29.98,10.0,North,5.8,-,N/A,,Overcast,350,2012-12-07 21:57:00
5:17 PM,34.2,23.9,66,29.98,10.0,NNE,3.5,-,N/A,,Overcast,30,2012-12-07 22:17:00
5:37 PM,34.0,25.0,70,29.98,10.0,NE,3.5,-,N/A,,Mostly Cloudy,40,2012-12-07 22:37:00
5:57 PM,34.2,24.8,69,29.98,10.0,NNE,5.8,-,N/A,,Overcast,20,2012-12-07 22:57:00
6:17 PM,34.2,24.4,68,29.98,10.0,NNE,4.6,-,N/A,,Overcast,30,2012-12-07 23:17:00
6:37 PM,34.0,24.3,68,29.98,10.0,NNE,4.6,-,N/A,,Overcast,20,2012-12-07 23:37:00
6:57 PM,34.0,23.9,67,29.99,10.0,North,5.8,-,N/A,,Overcast,10,2012-12-07 23:57:00
7:17 PM,34.0,23.5,66,29.99,10.0,NNE,4.6,-,N/A,,Overcast,20,2012-12-08 00:17:00
7:37 PM,34.0,23.7,66,30.00,10.0,North,4.6,-,N/A,,Overcast,10,2012-12-08 00:37:00
7:57 PM,33.6,23.0,65,30.00,10.0,NNE,4.6,-,N/A,,Overcast,20,2012-12-08 00:57:00
8:17 PM,33.4,22.8,65,30.00,10.0,NNE,3.5,-,N/A,,Overcast,20,2012-12-08 01:17:00
8:37 PM,33.3,23.0,66,30.00,10.0,North,4.6,-,N/A,,Overcast,10,2012-12-08 01:37:00
8:56 PM,33.1,23.2,67,30.01,10.0,Calm,Calm,-,N/A,,Overcast,0,2012-12-08 01:56:00
9:17 PM,33.3,23.0,66,30.00,10.0,NNE,4.6,-,N/A,,Overcast,20,2012-12-08 02:17:00
9:36 PM,32.9,23.2,67,30.00,10.0,Calm,Calm,-,N/A,,Overcast,0,2012-12-08 02:36:00
9:57 PM,32.9,23.0,67,30.00,10.0,Calm,Calm,-,N/A,,Overcast,0,2012-12-08 02:57:00
10:16 PM,32.2,23.0,69,30.00,10.0,Calm,Calm,-,N/A,,Overcast,0,2012-12-08 03:16:00
10:37 PM,32.4,22.8,68,30.00,10.0,Calm,Calm,-,N/A,,Overcast,0,2012-12-08 03:37:00
10:57 PM,32.7,23.0,67,30.00,10.0,Calm,Calm,-,N/A,,Overcast,0,2012-12-08 03:57:00
11:17 PM,32.4,23.0,68,29.99,10.0,Calm,Calm,-,N/A,,Overcast,0,2012-12-08 04:17:00
11:37 PM,32.4,23.0,68,29.99,10.0,Calm,Calm,-,N/A,,Overcast,0,2012-12-08 04:37:00
11:57 PM,32.9,23.0,67,29.99,10.0,Calm,Calm,-,N/A,,Overcast,0,2012-12-08 04:57:00